createdAt,value
2022-12-04T00:01:28.702Z,23.20
2022-12-04T00:03:58.945Z,24.80
2022-12-04T00:06:27.833Z,23.90
2022-12-04T00:08:57.025Z,22.60
2022-12-04T00:11:28.123Z,22.53
2022-12-04T00:14:04.611Z,23.00
2022-12-04T00:16:35.237Z,23.30
2022-12-04T00:19:03.616Z,22.50
2022-12-04T00:21:32.056Z,22.50
2022-12-04T00:24:00.370Z,23.50
2022-12-04T00:26:31.087Z,21.87
2022-12-04T00:29:01.259Z,22.50
2022-12-04T00:31:31.308Z,23.27
2022-12-04T00:34:00.736Z,23.53
2022-12-04T00:36:30.718Z,23.10
2022-12-04T00:39:01.587Z,22.70
2022-12-04T00:41:32.096Z,21.30
2022-12-04T00:44:02.522Z,22.87
2022-12-04T00:46:31.005Z,23.40
2022-12-04T00:49:01.866Z,22.97
2022-12-04T00:51:31.104Z,22.80
2022-12-04T00:53:59.496Z,23.17
2022-12-04T00:56:29.551Z,22.93
2022-12-04T00:58:59.621Z,23.23
2022-12-04T01:01:30.709Z,23.33
2022-12-04T01:03:59.458Z,23.20
2022-12-04T01:06:29.684Z,23.83
2022-12-04T01:08:59.624Z,23.30
2022-12-04T01:11:30.084Z,23.60
2022-12-04T01:14:00.057Z,23.77
2022-12-04T01:16:32.541Z,23.60
2022-12-04T01:19:01.722Z,23.40
2022-12-04T01:21:30.198Z,23.93
2022-12-04T01:23:59.125Z,23.90
2022-12-04T01:26:27.721Z,23.17
2022-12-04T01:28:56.218Z,23.77
2022-12-04T01:31:24.838Z,23.57
2022-12-04T01:33:54.863Z,23.73
2022-12-04T01:36:24.962Z,23.13
2022-12-04T01:38:53.601Z,22.87
2022-12-04T01:41:25.790Z,23.07
2022-12-04T01:44:15.097Z,22.80
2022-12-04T01:46:45.346Z,22.53
2022-12-04T01:49:20.061Z,21.73
2022-12-04T01:51:52.860Z,23.30
2022-12-04T01:54:28.703Z,23.70
2022-12-04T01:57:02.908Z,23.77
2022-12-04T01:59:36.468Z,24.13
2022-12-04T02:02:09.004Z,23.47
2022-12-04T02:04:39.844Z,23.20
2022-12-04T02:07:08.311Z,23.23
2022-12-04T02:09:39.419Z,25.13
2022-12-04T02:12:20.060Z,23.40
2022-12-04T02:14:58.849Z,23.87
2022-12-04T02:17:33.558Z,23.27
2022-12-04T02:20:19.781Z,24.00
2022-12-04T02:23:29.672Z,24.77
2022-12-04T02:26:06.861Z,23.50
2022-12-04T02:28:41.251Z,24.10
2022-12-04T02:31:16.569Z,24.27
2022-12-04T02:33:49.487Z,24.47
2022-12-04T02:36:22.076Z,24.20
2022-12-04T02:38:56.222Z,25.00
2022-12-04T02:41:28.821Z,23.73
2022-12-04T02:44:03.605Z,24.27
2022-12-04T02:46:37.915Z,25.07
2022-12-04T02:49:10.633Z,24.20
2022-12-04T02:51:42.209Z,23.97
2022-12-04T02:54:15.068Z,25.17
2022-12-04T02:56:47.731Z,24.57
2022-12-04T02:59:22.196Z,24.57
2022-12-04T03:01:54.964Z,25.03
2022-12-04T03:04:26.259Z,24.00
2022-12-04T03:06:59.541Z,24.13
2022-12-04T03:09:35.307Z,24.37
2022-12-04T03:12:10.571Z,25.03
2022-12-04T03:14:43.831Z,24.43
2022-12-04T03:17:19.517Z,24.00
2022-12-04T03:19:52.978Z,25.87
2022-12-04T03:22:24.444Z,24.50
2022-12-04T03:24:54.210Z,25.40
2022-12-04T03:27:30.164Z,24.70
2022-12-04T03:30:05.030Z,25.20
2022-12-04T03:32:39.929Z,24.53
2022-12-04T03:35:15.126Z,25.20
2022-12-04T03:37:48.310Z,25.10
2022-12-04T03:40:21.592Z,25.87
2022-12-04T03:42:57.709Z,26.20
2022-12-04T03:45:30.078Z,24.70
2022-12-04T03:48:03.898Z,25.60
2022-12-04T03:50:39.194Z,26.07
2022-12-04T03:53:13.141Z,24.53
2022-12-04T03:55:45.739Z,24.27
2022-12-04T03:58:19.641Z,24.03
2022-12-04T04:00:52.041Z,24.80
2022-12-04T04:03:23.731Z,25.93
2022-12-04T04:05:57.620Z,25.97
2022-12-04T04:08:34.030Z,25.87
2022-12-04T04:11:09.070Z,25.47
2022-12-04T04:13:59.188Z,28.27
2022-12-04T04:17:04.620Z,25.73
2022-12-04T04:19:54.487Z,25.90
2022-12-04T04:22:43.527Z,25.77
2022-12-04T04:25:16.837Z,25.10
2022-12-04T04:27:52.135Z,24.87
2022-12-04T04:30:20.786Z,25.77
2022-12-04T04:32:57.328Z,25.90
2022-12-04T04:35:33.657Z,24.93
2022-12-04T04:38:10.640Z,25.50
2022-12-04T04:40:43.967Z,24.00
2022-12-04T04:43:19.957Z,25.13
2022-12-04T04:45:52.365Z,25.03
2022-12-04T04:48:28.482Z,24.93
2022-12-04T04:50:57.531Z,24.87
2022-12-04T04:53:31.395Z,24.37
2022-12-04T04:56:00.606Z,24.33
2022-12-04T04:58:28.918Z,25.60
2022-12-04T05:01:02.476Z,25.13
2022-12-04T05:03:32.819Z,25.97
2022-12-04T05:06:01.280Z,25.70
2022-12-04T05:08:29.552Z,26.17
2022-12-04T05:10:57.938Z,25.97
2022-12-04T05:13:26.851Z,26.20
2022-12-04T05:15:59.730Z,26.73
2022-12-04T05:18:28.262Z,26.10
2022-12-04T05:20:57.168Z,26.27
2022-12-04T05:23:26.258Z,25.50
2022-12-04T05:26:00.657Z,26.83
2022-12-04T05:28:29.409Z,26.47
2022-12-04T05:30:58.645Z,26.40
2022-12-04T05:33:27.027Z,26.17
2022-12-04T05:36:01.138Z,26.43
2022-12-04T05:38:29.990Z,25.70
2022-12-04T05:40:59.943Z,26.97
2022-12-04T05:43:28.661Z,27.63
2022-12-04T05:45:56.951Z,27.07
2022-12-04T05:48:25.228Z,27.70
2022-12-04T05:50:53.508Z,26.73
2022-12-04T05:53:23.155Z,26.77
2022-12-04T05:55:56.581Z,27.67
2022-12-04T05:58:25.196Z,27.23
2022-12-04T06:00:53.587Z,26.83
2022-12-04T06:03:21.945Z,27.17
2022-12-04T06:05:50.330Z,27.17
2022-12-04T06:08:18.762Z,27.80
2022-12-04T06:10:48.488Z,26.97
2022-12-04T06:13:16.810Z,28.10
2022-12-04T06:15:45.128Z,28.07
2022-12-04T06:18:13.431Z,27.40
2022-12-04T06:20:41.858Z,27.27
2022-12-04T06:23:10.190Z,28.53
2022-12-04T06:25:38.472Z,28.57
2022-12-04T06:28:08.421Z,26.57
2022-12-04T06:30:37.198Z,28.23
2022-12-04T06:33:05.660Z,28.57
2022-12-04T06:35:33.923Z,26.83
2022-12-04T06:38:02.180Z,27.73
2022-12-04T06:40:30.522Z,26.77
2022-12-04T06:42:58.801Z,28.37
2022-12-04T06:45:28.498Z,26.90
2022-12-04T06:47:56.868Z,27.57
2022-12-04T06:50:25.172Z,26.40
2022-12-04T06:52:53.490Z,25.90
2022-12-04T06:55:21.749Z,27.17
2022-12-04T06:57:49.999Z,27.83
2022-12-04T07:00:18.746Z,26.03
2022-12-04T07:02:48.390Z,26.97
2022-12-04T07:05:16.841Z,26.53
2022-12-04T07:07:45.282Z,27.13
2022-12-04T07:10:13.910Z,26.43
2022-12-04T07:12:42.251Z,26.70
2022-12-04T07:15:11.441Z,27.03
2022-12-04T07:17:39.759Z,27.83
2022-12-04T07:20:11.106Z,28.13
2022-12-04T07:22:39.408Z,29.27
2022-12-04T07:25:07.979Z,28.73
2022-12-04T07:27:36.221Z,29.03
2022-12-04T07:30:05.169Z,28.43
2022-12-04T07:32:33.579Z,29.63
2022-12-04T07:35:01.858Z,29.10
2022-12-04T07:37:31.638Z,28.97
2022-12-04T07:39:59.899Z,30.20
2022-12-04T07:42:29.913Z,29.07
2022-12-04T07:44:58.178Z,29.23
2022-12-04T07:47:26.489Z,28.50
2022-12-04T07:49:55.045Z,27.10
2022-12-04T07:52:23.821Z,29.10
2022-12-04T07:54:53.470Z,27.93
2022-12-04T07:57:21.770Z,27.13
2022-12-04T07:59:50.234Z,26.67
2022-12-04T08:02:18.539Z,27.27
2022-12-04T08:04:47.083Z,26.10
2022-12-04T08:07:15.563Z,25.03
2022-12-04T08:09:43.913Z,25.20
2022-12-04T08:12:13.614Z,26.30
2022-12-04T08:14:41.903Z,25.67
2022-12-04T08:17:10.725Z,26.97
2022-12-04T08:19:39.159Z,24.60
2022-12-04T08:22:07.511Z,27.10
2022-12-04T08:24:36.620Z,26.20
2022-12-04T08:27:04.980Z,25.47
2022-12-04T08:29:34.810Z,27.23
2022-12-04T08:32:03.080Z,27.70
2022-12-04T08:34:31.392Z,27.80
2022-12-04T08:37:00.149Z,26.40
2022-12-04T08:39:28.511Z,25.07
2022-12-04T08:41:57.382Z,23.60
2022-12-04T08:44:26.297Z,23.13
2022-12-04T08:46:55.907Z,24.23
2022-12-04T08:49:24.253Z,22.90
2022-12-04T08:51:52.521Z,22.17
2022-12-04T08:54:20.792Z,22.70
2022-12-04T08:56:49.090Z,24.87
2022-12-04T08:59:17.381Z,23.77
2022-12-04T09:01:45.779Z,26.90
2022-12-04T09:04:15.404Z,29.00
2022-12-04T09:06:43.756Z,34.70
2022-12-04T09:09:12.970Z,33.93
2022-12-04T09:11:41.311Z,54.00
2022-12-04T09:14:09.672Z,30.33
2022-12-04T09:16:37.982Z,22.67
2022-12-04T09:19:06.355Z,20.93
2022-12-04T09:21:36.908Z,21.50
2022-12-04T09:24:05.321Z,21.97
2022-12-04T09:26:34.802Z,21.13
2022-12-04T09:29:05.030Z,22.27
2022-12-04T09:31:34.034Z,21.17
2022-12-04T09:34:03.405Z,21.93
2022-12-04T09:36:32.013Z,22.30
2022-12-04T09:39:01.671Z,25.77
2022-12-04T09:41:56.667Z,24.63
2022-12-04T09:44:28.900Z,25.67
2022-12-04T09:47:02.228Z,23.50
2022-12-04T09:49:38.055Z,23.00
2022-12-04T09:52:20.314Z,22.63
2022-12-04T09:54:52.112Z,21.60
2022-12-04T09:57:26.478Z,21.30
2022-12-04T09:59:56.302Z,21.87
2022-12-04T10:02:36.364Z,20.90
2022-12-04T10:05:05.999Z,21.03
2022-12-04T10:07:40.009Z,22.17
2022-12-04T10:10:20.258Z,19.43
2022-12-04T10:12:56.283Z,20.23
2022-12-04T10:15:31.042Z,21.20
2022-12-04T10:18:17.608Z,20.70
2022-12-04T10:21:01.957Z,20.53
2022-12-04T10:23:39.940Z,18.50
2022-12-04T10:26:15.777Z,18.80
2022-12-04T10:28:54.846Z,19.00
2022-12-04T10:31:24.868Z,19.63
2022-12-04T10:33:56.315Z,17.67
2022-12-04T10:36:29.406Z,18.53
2022-12-04T10:38:59.815Z,18.83
2022-12-04T10:41:35.659Z,18.43
2022-12-04T10:44:04.019Z,21.20
2022-12-04T10:46:35.813Z,19.87
2022-12-04T10:49:09.583Z,19.23
2022-12-04T10:51:41.219Z,18.90
2022-12-04T10:54:19.590Z,19.30
2022-12-04T10:56:58.614Z,19.10
2022-12-04T10:59:27.834Z,19.27
2022-12-04T11:02:06.512Z,18.27
2022-12-04T11:04:36.184Z,20.63
2022-12-04T11:07:07.093Z,21.37
2022-12-04T11:09:36.891Z,20.47
2022-12-04T11:12:18.260Z,21.97
2022-12-04T11:14:47.494Z,21.83
2022-12-04T11:17:19.732Z,21.87
2022-12-04T11:19:48.182Z,21.40
2022-12-04T11:22:19.619Z,21.33
2022-12-04T11:24:55.499Z,18.93
2022-12-04T11:27:31.664Z,20.10
2022-12-04T11:30:03.103Z,20.03
2022-12-04T11:32:34.379Z,20.17
2022-12-04T11:35:08.516Z,20.90
2022-12-04T11:37:42.075Z,20.40
2022-12-04T11:40:19.715Z,20.00
2022-12-04T11:43:02.249Z,19.67
2022-12-04T11:45:30.901Z,19.30
2022-12-04T11:48:01.720Z,19.17
2022-12-04T11:50:41.088Z,19.53
2022-12-04T11:53:17.334Z,18.50
2022-12-04T11:56:11.040Z,16.53
2022-12-04T11:59:12.670Z,14.60
2022-12-04T12:01:50.070Z,18.60
2022-12-04T12:04:34.499Z,19.50
2022-12-04T12:07:16.951Z,21.47
2022-12-04T12:09:53.406Z,22.43
2022-12-04T12:12:28.448Z,21.50
2022-12-04T12:15:06.007Z,21.53
2022-12-04T12:17:41.167Z,21.80
2022-12-04T12:20:19.250Z,21.37
2022-12-04T12:23:12.881Z,20.40
2022-12-04T12:25:52.102Z,20.67
2022-12-04T12:28:42.894Z,20.87
2022-12-04T12:31:28.061Z,20.70
2022-12-04T12:34:01.664Z,19.30
2022-12-04T12:36:39.941Z,21.27
2022-12-04T12:39:15.189Z,20.90
2022-12-04T12:41:46.828Z,20.73
2022-12-04T12:44:21.678Z,20.27
2022-12-04T12:46:55.910Z,20.33
2022-12-04T12:49:29.858Z,21.87
2022-12-04T12:52:04.331Z,21.67
2022-12-04T12:54:42.067Z,21.03
2022-12-04T12:57:16.035Z,20.97
2022-12-04T12:59:49.132Z,22.87
2022-12-04T13:02:26.633Z,22.60
2022-12-04T13:04:59.328Z,22.93
2022-12-04T13:07:43.614Z,22.67
2022-12-04T13:10:16.587Z,23.80
2022-12-04T13:12:47.572Z,24.33
2022-12-04T13:15:21.531Z,22.63
2022-12-04T13:17:53.792Z,23.43
2022-12-04T13:20:26.468Z,23.30
2022-12-04T13:23:17.290Z,22.83
2022-12-04T13:25:57.441Z,22.97
2022-12-04T13:28:38.282Z,24.00
2022-12-04T13:31:20.368Z,23.03
2022-12-04T13:34:24.697Z,23.60
2022-12-04T13:37:14.407Z,24.77
2022-12-04T13:40:30.740Z,32.37
2022-12-04T13:43:35.771Z,33.63
2022-12-04T13:46:07.605Z,31.07
2022-12-04T13:48:39.989Z,30.33
2022-12-04T13:51:25.498Z,28.70
2022-12-04T13:54:21.408Z,24.90
2022-12-04T13:56:51.657Z,24.93
2022-12-04T13:59:34.771Z,24.47
2022-12-04T14:02:08.357Z,26.23
2022-12-04T14:04:45.320Z,25.40
2022-12-04T14:07:27.668Z,25.23
2022-12-04T14:09:57.899Z,26.80
2022-12-04T14:12:30.000Z,27.30
2022-12-04T14:15:00.631Z,27.27
2022-12-04T14:17:32.254Z,26.97
2022-12-04T14:20:07.547Z,26.47
2022-12-04T14:22:45.830Z,26.70
2022-12-04T14:25:34.300Z,26.10
2022-12-04T14:28:15.176Z,27.50
2022-12-04T14:30:45.821Z,27.27
2022-12-04T14:33:21.835Z,27.80
2022-12-04T14:35:59.451Z,26.90
2022-12-04T14:38:29.543Z,27.07
2022-12-04T14:40:58.613Z,28.57
2022-12-04T14:43:39.554Z,26.93
2022-12-04T14:46:14.895Z,29.03
2022-12-04T14:48:52.065Z,28.30
2022-12-04T14:51:30.635Z,29.47
2022-12-04T14:54:11.447Z,29.60
2022-12-04T14:56:52.134Z,29.13
2022-12-04T14:59:22.698Z,30.20
2022-12-04T15:01:53.491Z,29.93
2022-12-04T15:04:27.188Z,29.00
2022-12-04T15:07:00.233Z,33.13
2022-12-04T15:09:48.517Z,30.53
2022-12-04T15:12:37.173Z,29.20
2022-12-04T15:15:19.523Z,29.33
2022-12-04T15:17:58.389Z,30.73
2022-12-04T15:20:27.929Z,29.20
2022-12-04T15:22:58.987Z,29.23
2022-12-04T15:25:32.733Z,30.27
2022-12-04T15:28:07.788Z,32.90
2022-12-04T15:30:39.130Z,31.20
2022-12-04T15:33:08.212Z,33.87
2022-12-04T15:35:37.000Z,31.73
2022-12-04T15:38:05.549Z,32.27
2022-12-04T15:40:35.257Z,30.03
2022-12-04T15:43:17.490Z,30.77
2022-12-04T15:45:45.984Z,30.07
2022-12-04T15:48:25.017Z,31.00
2022-12-04T15:51:06.258Z,31.47
2022-12-04T15:53:37.790Z,31.07
2022-12-04T15:56:10.271Z,28.13
2022-12-04T15:58:40.854Z,31.17
2022-12-04T16:01:11.500Z,29.17
2022-12-04T16:03:47.820Z,30.20
2022-12-04T16:06:20.695Z,28.23
2022-12-04T16:08:51.074Z,28.83
2022-12-04T16:11:32.727Z,28.60
2022-12-04T16:14:16.193Z,27.43
2022-12-04T16:16:46.897Z,25.50
2022-12-04T16:19:19.461Z,25.83
2022-12-04T16:21:47.923Z,27.53
2022-12-04T16:24:16.529Z,27.53
2022-12-04T16:26:46.121Z,26.33
2022-12-04T16:29:14.496Z,28.60
2022-12-04T16:31:43.222Z,27.87
2022-12-04T16:34:13.437Z,29.23
2022-12-04T16:36:42.194Z,29.63
2022-12-04T16:39:10.474Z,28.90
2022-12-04T16:41:38.863Z,25.83
2022-12-04T16:44:15.100Z,29.70
2022-12-04T16:46:43.978Z,29.70
2022-12-04T16:49:13.637Z,28.10
2022-12-04T16:51:46.912Z,27.23
2022-12-04T16:54:15.223Z,26.00
2022-12-04T16:56:43.645Z,25.97
2022-12-04T16:59:13.258Z,28.93
2022-12-04T17:01:44.877Z,28.67
2022-12-04T17:04:13.474Z,29.60
2022-12-04T17:06:42.227Z,29.00
2022-12-04T17:09:10.983Z,30.13
2022-12-04T17:11:39.513Z,27.67
2022-12-04T17:14:08.049Z,29.53
2022-12-04T17:16:41.312Z,30.10
2022-12-04T17:19:10.180Z,29.00
2022-12-04T17:21:40.344Z,26.93
2022-12-04T17:24:09.264Z,28.90
2022-12-04T17:26:37.730Z,29.87
2022-12-04T17:29:05.960Z,27.90
2022-12-04T17:31:34.328Z,29.93
2022-12-04T17:34:04.010Z,28.93
2022-12-04T17:36:32.287Z,27.60
2022-12-04T17:39:02.666Z,27.93
2022-12-04T17:41:31.136Z,29.50
2022-12-04T17:44:01.702Z,29.17
2022-12-04T17:46:30.141Z,32.57
2022-12-04T17:49:01.577Z,32.00
2022-12-04T17:51:35.907Z,31.83
2022-12-04T17:54:04.450Z,31.80
2022-12-04T17:56:33.452Z,30.90
2022-12-04T17:59:01.923Z,31.40
2022-12-04T18:01:30.639Z,32.97
2022-12-04T18:04:01.852Z,32.93
2022-12-04T18:06:31.773Z,33.97
2022-12-04T18:09:01.930Z,34.33
2022-12-04T18:11:32.609Z,33.23
2022-12-04T18:14:05.937Z,31.70
2022-12-04T18:16:39.329Z,32.77
2022-12-04T18:19:07.721Z,32.13
2022-12-04T18:21:36.288Z,31.73
2022-12-04T18:24:06.966Z,32.07
2022-12-04T18:26:37.346Z,35.03
2022-12-04T18:29:06.670Z,35.47
2022-12-04T18:31:35.388Z,32.60
2022-12-04T18:34:06.067Z,32.30
2022-12-04T18:36:35.320Z,31.17
2022-12-04T18:39:08.455Z,35.30
2022-12-04T18:41:36.930Z,33.53
2022-12-04T18:44:05.573Z,33.30
2022-12-04T18:46:34.203Z,33.60
2022-12-04T18:49:03.386Z,34.83
2022-12-04T18:51:34.648Z,35.00
2022-12-04T18:54:05.431Z,32.00
2022-12-04T18:56:36.658Z,33.70
2022-12-04T18:59:07.090Z,33.13
2022-12-04T19:01:35.709Z,33.90
2022-12-04T19:04:07.459Z,35.37
2022-12-04T19:06:38.425Z,33.13
2022-12-04T19:09:11.734Z,33.97
2022-12-04T19:11:42.929Z,33.07
2022-12-04T19:14:22.250Z,34.10
2022-12-04T19:16:51.888Z,33.20
2022-12-04T19:19:20.257Z,34.77
2022-12-04T19:21:48.694Z,34.30
2022-12-04T19:24:17.835Z,33.17
2022-12-04T19:26:48.078Z,34.70
2022-12-04T19:29:16.440Z,33.70
2022-12-04T19:31:44.865Z,34.37
2022-12-04T19:34:13.248Z,35.37
2022-12-04T19:36:42.711Z,35.50
2022-12-04T19:39:11.412Z,32.87
2022-12-04T19:41:41.385Z,34.30
2022-12-04T19:44:46.854Z,34.40
2022-12-04T19:46:59.984Z,34.40
2022-12-04T19:49:28.292Z,35.13
2022-12-04T19:51:56.570Z,35.10
2022-12-04T19:54:25.712Z,34.87
2022-12-04T19:56:54.142Z,34.40
2022-12-04T19:59:23.793Z,35.10
2022-12-04T20:01:52.406Z,35.50
2022-12-04T20:04:20.883Z,35.17
2022-12-04T20:06:49.195Z,34.23
2022-12-04T20:09:20.867Z,35.83
2022-12-04T20:11:50.448Z,35.23
2022-12-04T20:14:19.080Z,35.87
2022-12-04T20:16:48.945Z,34.87
2022-12-04T20:19:19.093Z,35.70
2022-12-04T20:21:48.150Z,35.43
2022-12-04T20:24:17.672Z,33.17
2022-12-04T20:26:47.930Z,35.50
2022-12-04T20:29:19.126Z,34.30
2022-12-04T20:31:48.980Z,34.80
2022-12-04T20:34:19.388Z,35.83
2022-12-04T20:36:49.119Z,36.67
2022-12-04T20:39:18.479Z,34.77
2022-12-04T20:41:46.959Z,34.23
2022-12-04T20:44:20.840Z,35.17
2022-12-04T20:46:51.036Z,35.00
2022-12-04T20:49:22.392Z,34.20
2022-12-04T20:51:52.588Z,34.77
2022-12-04T20:54:23.401Z,34.90
2022-12-04T20:56:53.354Z,33.90
2022-12-04T20:59:23.953Z,36.03
2022-12-04T21:01:54.749Z,35.13
2022-12-04T21:04:23.778Z,34.70
2022-12-04T21:06:52.105Z,33.50
2022-12-04T21:09:23.236Z,33.10
2022-12-04T21:11:53.755Z,31.90
2022-12-04T21:14:50.959Z,33.23
2022-12-04T21:17:21.504Z,31.90
2022-12-04T21:19:51.542Z,33.43
2022-12-04T21:22:20.901Z,33.20
2022-12-04T21:24:49.269Z,32.93
2022-12-04T21:27:21.237Z,35.70
2022-12-04T21:29:50.407Z,34.03
2022-12-04T21:32:21.096Z,35.10
2022-12-04T21:34:50.110Z,36.17
2022-12-04T21:37:18.602Z,34.03
2022-12-04T21:39:46.951Z,35.33
2022-12-04T21:42:34.594Z,33.80
2022-12-04T21:45:04.444Z,33.20
2022-12-04T21:47:34.604Z,35.33
2022-12-04T21:50:02.950Z,33.43
2022-12-04T21:52:31.476Z,33.13
2022-12-04T21:54:59.762Z,33.90
2022-12-04T21:57:29.185Z,34.77
2022-12-04T21:59:57.797Z,34.20
2022-12-04T22:02:26.399Z,33.80
2022-12-04T22:04:56.058Z,33.97
2022-12-04T22:07:24.403Z,33.57
2022-12-04T22:09:52.731Z,33.87
2022-12-04T22:12:51.027Z,32.40
2022-12-04T22:15:10.039Z,32.37
2022-12-04T22:17:38.304Z,31.83
2022-12-04T22:20:09.134Z,31.30
2022-12-04T22:22:37.484Z,32.40
2022-12-04T22:25:06.096Z,32.70
2022-12-04T22:27:34.359Z,32.47
2022-12-04T22:30:02.882Z,33.10
2022-12-04T22:32:31.288Z,31.47
2022-12-04T22:34:59.623Z,34.47
2022-12-04T22:37:29.169Z,32.73
2022-12-04T22:39:57.813Z,32.80
2022-12-04T22:42:26.437Z,32.63
2022-12-04T22:44:54.749Z,34.33
2022-12-04T22:47:22.993Z,33.10
2022-12-04T22:49:51.438Z,33.13
2022-12-04T22:52:20.129Z,33.30
2022-12-04T22:54:51.321Z,34.10
2022-12-04T22:57:19.978Z,35.80
2022-12-04T22:59:48.300Z,36.50
2022-12-04T23:02:16.721Z,36.17
2022-12-04T23:04:45.076Z,35.83
2022-12-04T23:07:13.551Z,34.77
2022-12-04T23:09:41.910Z,35.23
2022-12-04T23:12:11.540Z,35.43
2022-12-04T23:14:39.831Z,34.93
2022-12-04T23:17:08.138Z,36.13
2022-12-04T23:19:36.469Z,35.57
2022-12-04T23:22:04.767Z,36.37
2022-12-04T23:24:33.423Z,37.33
2022-12-04T23:27:02.328Z,38.80
2022-12-04T23:32:20.352Z,36.80
2022-12-04T23:34:48.602Z,36.93
2022-12-04T23:37:17.139Z,37.20
2022-12-04T23:39:45.421Z,36.17
2022-12-04T23:42:13.720Z,37.10
2022-12-04T23:44:43.309Z,36.03
2022-12-04T23:47:11.620Z,36.43
2022-12-04T23:49:39.967Z,37.90
2022-12-04T23:52:08.331Z,35.93
2022-12-04T23:54:37.690Z,38.10
2022-12-04T23:57:06.039Z,38.80
2022-12-04T23:59:34.380Z,37.87
